Time;durP1;ratioP1;P1;durP2;ratioP2;P2;SDS_P1;SDS_P2;PMS_P1;PMS_P2;Temp;Humidity;BMP_temperature;BMP_pressure;BME280_temperature;BME280_humidity;BME280_pressure;Samples;Min_cycle;Max_cycle;Signal;HPM_P1;HPM_P2
2023/04/15 00:01:38;;;;;;;0.80;0.80;;;5.90;99.90;;;;;;5096610;28;20460;-83
2023/04/15 00:04:05;;;;;;;0.57;0.57;;;5.90;99.90;;;;;;5096691;28;20449;-83
2023/04/15 00:06:31;;;;;;;1.90;0.63;;;5.90;99.90;;;;;;5096657;28;20441;-83
2023/04/15 00:08:59;;;;;;;0.47;0.40;;;5.80;99.90;;;;;;5096467;28;20815;-83
2023/04/15 00:11:26;;;;;;;0.40;0.30;;;5.90;99.90;;;;;;5096430;28;20489;-83
2023/04/15 00:13:53;;;;;;;0.73;0.60;;;5.80;99.90;;;;;;5096550;28;20452;-83
2023/04/15 00:16:20;;;;;;;0.80;0.47;;;5.80;99.90;;;;;;5096174;28;20455;-83
2023/04/15 00:18:46;;;;;;;1.43;0.80;;;5.80;99.90;;;;;;5096479;28;20451;-83
2023/04/15 00:21:13;;;;;;;1.73;0.50;;;5.70;99.90;;;;;;5096312;28;20468;-83
2023/04/15 00:23:40;;;;;;;0.50;0.50;;;5.70;99.90;;;;;;5096344;28;20452;-83
2023/04/15 00:26:08;;;;;;;0.43;0.43;;;5.60;99.90;;;;;;5096327;28;20440;-83
2023/04/15 00:28:35;;;;;;;1.33;0.70;;;5.50;99.90;;;;;;5096234;28;20448;-83
2023/04/15 00:31:01;;;;;;;0.87;0.70;;;5.50;99.90;;;;;;5096075;28;20583;-85
2023/04/15 00:33:28;;;;;;;0.40;0.40;;;5.50;99.90;;;;;;5095203;28;20452;-85
2023/04/15 00:35:55;;;;;;;0.70;0.50;;;5.50;99.90;;;;;;5096001;28;20936;-85
2023/04/15 00:38:22;;;;;;;0.50;0.40;;;5.50;99.90;;;;;;5096148;28;20445;-85
2023/04/15 00:40:48;;;;;;;0.97;0.40;;;5.40;99.90;;;;;;5096049;28;20471;-85
2023/04/15 00:43:17;;;;;;;0.53;0.53;;;5.40;99.90;;;;;;5096071;28;20460;-83
2023/04/15 00:45:45;;;;;;;0.70;0.70;;;5.40;99.90;;;;;;5095927;28;20860;-83
2023/04/15 00:48:12;;;;;;;0.87;0.60;;;5.40;99.90;;;;;;5095401;28;20495;-83
2023/04/15 00:50:39;;;;;;;1.23;0.50;;;5.40;99.90;;;;;;5095706;28;20491;-83
2023/04/15 00:53:06;;;;;;;1.80;0.53;;;5.30;99.90;;;;;;5095751;28;20494;-83
2023/04/15 00:55:32;;;;;;;0.40;0.40;;;5.30;99.90;;;;;;5095745;28;20445;-83
2023/04/15 00:57:59;;;;;;;0.60;0.60;;;5.30;99.90;;;;;;5095667;28;20459;-83
2023/04/15 01:00:27;;;;;;;0.50;0.43;;;5.20;99.90;;;;;;5095562;28;20477;-83
2023/04/15 01:02:54;;;;;;;0.30;0.30;;;5.20;99.90;;;;;;5095534;28;20453;-83
2023/04/15 01:05:21;;;;;;;2.10;0.60;;;5.20;99.90;;;;;;5095231;28;20940;-83
2023/04/15 01:07:48;;;;;;;0.60;0.60;;;5.20;99.90;;;;;;5095491;28;20468;-83
2023/04/15 01:10:15;;;;;;;2.30;0.77;;;5.20;99.90;;;;;;5095290;28;20488;-81
2023/04/15 01:12:42;;;;;;;0.40;0.40;;;5.20;99.90;;;;;;5095382;28;20452;-81
2023/04/15 01:15:09;;;;;;;0.97;0.70;;;5.10;99.90;;;;;;5095366;28;20474;-81
2023/04/15 01:17:38;;;;;;;0.50;0.50;;;5.10;99.90;;;;;;5095295;28;20452;-81
2023/04/15 01:20:08;;;;;;;0.73;0.50;;;5.10;99.90;;;;;;5095203;28;20464;-81
2023/04/15 01:22:37;;;;;;;0.50;0.50;;;5.10;99.90;;;;;;5094925;28;20911;-81
2023/04/15 01:25:09;;;;;;;0.40;0.40;;;5.10;99.90;;;;;;5095167;28;20452;-81
2023/04/15 01:27:39;;;;;;;1.13;0.57;;;5.10;99.90;;;;;;5095141;28;20432;-81
2023/04/15 01:30:08;;;;;;;1.20;0.60;;;5.00;99.90;;;;;;5094613;28;21035;-81
2023/04/15 01:32:35;;;;;;;0.60;0.60;;;5.00;99.90;;;;;;5096068;28;20448;-81
2023/04/15 01:35:01;;;;;;;0.37;0.30;;;4.90;99.90;;;;;;5096764;28;20970;-81
2023/04/15 01:37:28;;;;;;;0.50;0.50;;;4.90;99.90;;;;;;5094903;28;20445;-81
2023/04/15 01:39:56;;;;;;;0.50;0.50;;;4.90;99.90;;;;;;5094781;28;20476;-81
2023/04/15 01:42:23;;;;;;;0.37;0.33;;;4.90;99.90;;;;;;5094810;28;20528;-81
2023/04/15 01:44:51;;;;;;;2.93;0.47;;;4.90;99.90;;;;;;5094733;28;20451;-81
2023/04/15 01:47:17;;;;;;;0.40;0.40;;;4.90;99.90;;;;;;5094396;28;20846;-81
2023/04/15 01:49:44;;;;;;;0.50;0.50;;;4.90;99.90;;;;;;5094594;28;20465;-81
2023/04/15 01:52:11;;;;;;;0.30;0.30;;;4.80;99.90;;;;;;5094527;28;20488;-81
2023/04/15 01:54:37;;;;;;;0.73;0.40;;;4.80;99.90;;;;;;5094451;28;20433;-81
2023/04/15 01:57:04;;;;;;;0.77;0.47;;;4.90;99.90;;;;;;5094221;28;20444;-81
2023/04/15 01:59:31;;;;;;;0.30;0.30;;;4.80;99.90;;;;;;5094403;28;20963;-81
2023/04/15 02:02:00;;;;;;;0.80;0.50;;;4.80;99.90;;;;;;5094431;28;20959;-81
2023/04/15 02:04:27;;;;;;;0.50;0.40;;;4.80;99.90;;;;;;5094402;28;20521;-81
2023/04/15 02:06:53;;;;;;;1.80;0.60;;;4.70;99.90;;;;;;5094095;28;20813;-81
2023/04/15 02:09:20;;;;;;;3.40;0.60;;;4.80;99.90;;;;;;5094246;28;20455;-81
2023/04/15 02:11:47;;;;;;;3.63;0.60;;;4.80;99.90;;;;;;5094261;28;20476;-81
2023/04/15 02:14:13;;;;;;;0.50;0.50;;;4.80;99.90;;;;;;5093883;28;20860;-81
2023/04/15 02:16:40;;;;;;;0.50;0.50;;;4.70;99.90;;;;;;5094223;28;20460;-81
2023/04/15 02:19:08;;;;;;;0.70;0.50;;;4.70;99.90;;;;;;5094134;28;20448;-81
2023/04/15 02:21:35;;;;;;;4.53;0.40;;;4.70;99.90;;;;;;5094031;28;20465;-81
2023/04/15 02:24:03;;;;;;;0.70;0.70;;;4.70;99.90;;;;;;5094042;28;20441;-81
2023/04/15 02:26:31;;;;;;;3.80;0.50;;;4.70;99.90;;;;;;5094001;28;20472;-81
2023/04/15 02:28:58;;;;;;;0.77;0.50;;;4.60;99.90;;;;;;5093987;28;20537;-81
2023/04/15 02:31:25;;;;;;;1.23;0.40;;;4.50;99.90;;;;;;5093794;28;20480;-81
2023/04/15 02:33:52;;;;;;;0.30;0.30;;;4.50;99.90;;;;;;5093900;28;20444;-81
2023/04/15 02:36:20;;;;;;;1.20;0.60;;;4.50;99.90;;;;;;5093859;28;20460;-81
2023/04/15 02:38:47;;;;;;;1.70;0.60;;;4.40;99.90;;;;;;5093840;28;20455;-81
2023/04/15 02:41:14;;;;;;;1.70;0.63;;;4.40;99.90;;;;;;5093723;28;20464;-81
2023/04/15 02:43:40;;;;;;;0.50;0.50;;;4.40;99.90;;;;;;5093781;28;20440;-82
2023/04/15 02:46:07;;;;;;;4.63;0.60;;;4.40;99.90;;;;;;5093540;28;20440;-86
2023/04/15 02:48:34;;;;;;;0.33;0.30;;;4.30;99.90;;;;;;5093348;28;20472;-84
2023/04/15 02:51:15;;;;;;;0.83;0.50;;;4.30;99.90;;;;;;5093648;28;20587;-84
2023/04/15 02:53:43;;;;;;;0.30;0.30;;;4.30;99.90;;;;;;5093752;28;20492;-85
2023/04/15 02:56:10;;;;;;;0.30;0.30;;;4.20;99.90;;;;;;5093213;28;20448;-84
2023/04/15 02:58:37;;;;;;;0.40;0.30;;;4.20;99.90;;;;;;5093358;28;20936;-84
2023/04/15 03:01:04;;;;;;;0.40;0.33;;;4.20;99.90;;;;;;5093603;28;20468;-84
2023/04/15 03:03:30;;;;;;;0.57;0.53;;;4.10;99.90;;;;;;5094110;28;20520;-84
2023/04/15 03:05:57;;;;;;;0.63;0.40;;;4.10;99.90;;;;;;5093631;28;20463;-84
2023/04/15 03:08:24;;;;;;;0.50;0.40;;;4.10;99.90;;;;;;5093620;28;20451;-84
2023/04/15 03:10:53;;;;;;;0.30;0.30;;;4.10;99.90;;;;;;5093400;28;20491;-84
2023/04/15 03:13:19;;;;;;;0.40;0.40;;;4.10;99.90;;;;;;5093626;28;20483;-84
2023/04/15 03:15:47;;;;;;;0.40;0.40;;;4.10;99.90;;;;;;5093215;28;20935;-84
2023/04/15 03:18:13;;;;;;;0.50;0.43;;;4.10;99.90;;;;;;5093454;28;20448;-84
2023/04/15 03:20:40;;;;;;;0.70;0.67;;;4.10;99.90;;;;;;5093378;28;20456;-84
2023/04/15 03:23:07;;;;;;;0.57;0.43;;;4.10;99.90;;;;;;5093385;28;20532;-84
2023/04/15 03:25:34;;;;;;;0.40;0.30;;;4.10;99.90;;;;;;5093541;28;20482;-84
2023/04/15 03:28:02;;;;;;;1.33;0.60;;;4.10;99.90;;;;;;5093486;28;20511;-84
2023/04/15 03:30:28;;;;;;;0.43;0.43;;;4.10;99.90;;;;;;5093189;28;20476;-84
2023/04/15 03:32:55;;;;;;;1.10;0.70;;;4.20;99.90;;;;;;5093317;28;20860;-84
2023/04/15 03:35:22;;;;;;;0.40;0.33;;;4.10;99.90;;;;;;5093416;28;20452;-84
2023/04/15 03:37:48;;;;;;;0.40;0.40;;;4.10;99.90;;;;;;5093433;28;20453;-85
2023/04/15 03:40:15;;;;;;;2.30;0.60;;;4.10;99.90;;;;;;5092873;28;21038;-84
2023/04/15 03:42:42;;;;;;;0.60;0.40;;;4.10;99.90;;;;;;5093260;28;20498;-84
2023/04/15 03:45:11;;;;;;;0.30;0.30;;;4.10;99.90;;;;;;5093302;28;20449;-84
2023/04/15 03:47:38;;;;;;;1.80;0.67;;;4.10;99.90;;;;;;5092900;28;20552;-84
2023/04/15 03:50:06;;;;;;;0.40;0.30;;;4.10;99.90;;;;;;5093098;28;20480;-84
2023/04/15 03:52:32;;;;;;;0.30;0.30;;;4.00;99.90;;;;;;5093085;28;20481;-84
2023/04/15 03:54:59;;;;;;;9.83;1.33;;;4.00;99.90;;;;;;5093112;28;20448;-84
2023/04/15 03:57:26;;;;;;;0.40;0.37;;;4.00;99.90;;;;;;5093129;28;20440;-84
2023/04/15 03:59:53;;;;;;;0.50;0.50;;;3.90;99.90;;;;;;5093098;28;20543;-84
2023/04/15 04:02:21;;;;;;;1.07;0.70;;;3.90;99.90;;;;;;5092800;28;20440;-85
2023/04/15 04:04:48;;;;;;;0.80;0.60;;;3.90;99.90;;;;;;5093111;28;20452;-85
2023/04/15 04:07:16;;;;;;;0.60;0.60;;;3.90;99.90;;;;;;5093284;28;20444;-84
2023/04/15 04:09:43;;;;;;;0.60;0.40;;;3.90;99.90;;;;;;5096400;28;20847;-84
2023/04/15 04:12:10;;;;;;;0.33;0.30;;;3.90;99.90;;;;;;5096306;28;20484;-84
2023/04/15 04:14:36;;;;;;;0.50;0.40;;;3.80;99.90;;;;;;5096373;28;20959;-83
2023/04/15 04:17:03;;;;;;;0.70;0.50;;;3.80;99.90;;;;;;5096642;28;20483;-84
2023/04/15 04:19:31;;;;;;;0.77;0.77;;;3.80;99.90;;;;;;5096452;28;20498;-84
2023/04/15 04:21:58;;;;;;;0.53;0.40;;;3.80;99.90;;;;;;5096492;28;20443;-84
2023/04/15 04:24:25;;;;;;;0.40;0.30;;;3.80;99.90;;;;;;5096589;28;20440;-84
2023/04/15 04:26:52;;;;;;;0.37;0.30;;;3.80;99.90;;;;;;5096484;28;20489;-84
2023/04/15 04:29:18;;;;;;;0.33;0.30;;;3.80;99.90;;;;;;5096313;28;20449;-83
2023/04/15 04:31:47;;;;;;;0.37;0.37;;;3.80;99.90;;;;;;5096238;28;20480;-84
2023/04/15 04:34:14;;;;;;;1.50;0.53;;;3.80;99.90;;;;;;5096307;28;20444;-84
2023/04/15 04:36:42;;;;;;;0.57;0.57;;;3.80;99.90;;;;;;5096171;28;20822;-84
2023/04/15 04:39:08;;;;;;;1.93;1.23;;;3.70;99.90;;;;;;5096245;28;20517;-84
2023/04/15 04:41:35;;;;;;;0.60;0.60;;;3.70;99.90;;;;;;5096110;28;20499;-84
2023/04/15 04:44:02;;;;;;;1.47;0.73;;;3.70;99.90;;;;;;5096140;28;20449;-84
2023/04/15 04:46:29;;;;;;;1.03;0.80;;;3.70;99.90;;;;;;5096035;28;20456;-86
2023/04/15 04:48:55;;;;;;;0.50;0.50;;;3.70;99.90;;;;;;5095521;28;21045;-84
2023/04/15 04:51:22;;;;;;;3.40;0.90;;;3.70;99.90;;;;;;5095437;28;21019;-84
2023/04/15 04:53:50;;;;;;;0.40;0.40;;;3.70;99.90;;;;;;5095879;28;20445;-84
2023/04/15 04:56:17;;;;;;;2.70;0.50;;;3.70;99.90;;;;;;5095744;28;20451;-84
2023/04/15 04:58:44;;;;;;;0.43;0.40;;;3.70;99.90;;;;;;5095853;28;20451;-84
2023/04/15 05:01:11;;;;;;;0.37;0.37;;;3.70;99.90;;;;;;5095726;28;20507;-84
2023/04/15 05:03:38;;;;;;;0.60;0.50;;;3.80;99.90;;;;;;5095666;28;20452;-84
2023/04/15 05:06:07;;;;;;;1.00;0.50;;;3.80;99.90;;;;;;5095653;28;21001;-84
2023/04/15 05:08:34;;;;;;;0.50;0.50;;;3.80;99.90;;;;;;5095479;28;20448;-84
2023/04/15 05:11:02;;;;;;;0.40;0.40;;;3.80;99.90;;;;;;5095120;28;21037;-84
2023/04/15 05:13:29;;;;;;;0.80;0.50;;;3.80;99.90;;;;;;5095508;28;20796;-84
2023/04/15 05:15:56;;;;;;;0.57;0.57;;;3.80;99.90;;;;;;5095475;28;20471;-84
2023/04/15 05:18:23;;;;;;;0.80;0.37;;;3.90;99.90;;;;;;5094789;28;20563;-84
2023/04/15 05:20:49;;;;;;;0.47;0.47;;;3.90;99.90;;;;;;5095267;28;20456;-84
2023/04/15 05:23:17;;;;;;;1.13;0.50;;;4.00;99.90;;;;;;5095093;28;20441;-84
2023/04/15 05:25:44;;;;;;;0.30;0.30;;;4.00;99.90;;;;;;5095242;28;20540;-84
2023/04/15 05:28:12;;;;;;;1.23;0.70;;;4.10;99.90;;;;;;5095240;28;20478;-84
2023/04/15 05:30:39;;;;;;;1.33;0.60;;;4.20;99.90;;;;;;5095087;28;20456;-84
2023/04/15 05:33:06;;;;;;;0.73;0.73;;;4.30;99.90;;;;;;5095043;28;20480;-84
2023/04/15 05:35:33;;;;;;;0.53;0.53;;;4.40;99.90;;;;;;5095230;28;20448;-85
2023/04/15 05:37:59;;;;;;;2.57;0.40;;;4.50;99.90;;;;;;5094942;28;20448;-84
2023/04/15 05:40:27;;;;;;;1.30;0.50;;;4.60;99.90;;;;;;5094559;28;20517;-84
2023/04/15 05:42:53;;;;;;;4.13;0.80;;;4.60;99.90;;;;;;5094577;28;20459;-85
2023/04/15 05:45:22;;;;;;;3.60;1.03;;;4.70;99.90;;;;;;5094908;28;20463;-84
2023/04/15 05:47:49;;;;;;;0.40;0.40;;;4.80;99.90;;;;;;5094345;28;20484;-84
2023/04/15 05:50:16;;;;;;;0.50;0.50;;;4.90;99.90;;;;;;5094841;28;20475;-84
2023/04/15 05:52:44;;;;;;;0.57;0.57;;;5.00;99.90;;;;;;5094845;28;20487;-85
2023/04/15 05:55:11;;;;;;;1.20;0.80;;;5.20;99.90;;;;;;5094790;28;20498;-85
2023/04/15 05:57:38;;;;;;;0.57;0.57;;;5.30;99.90;;;;;;5094790;28;20452;-85
2023/04/15 06:00:05;;;;;;;0.83;0.70;;;5.40;99.90;;;;;;5094570;28;20465;-85
2023/04/15 06:02:33;;;;;;;0.60;0.60;;;5.50;99.90;;;;;;5094620;28;20829;-84
2023/04/15 06:05:00;;;;;;;0.90;0.40;;;5.60;99.90;;;;;;5094563;28;20475;-85
2023/04/15 06:07:27;;;;;;;0.50;0.50;;;5.70;99.90;;;;;;5094551;28;20472;-84
2023/04/15 06:09:54;;;;;;;0.67;0.40;;;5.80;99.90;;;;;;5094442;28;20509;-84
2023/04/15 06:12:20;;;;;;;1.17;1.07;;;5.90;99.90;;;;;;5094368;28;20476;-84
2023/04/15 06:14:47;;;;;;;0.53;0.53;;;6.00;99.90;;;;;;5094387;28;20470;-85
2023/04/15 06:17:17;;;;;;;0.60;0.60;;;6.10;99.90;;;;;;5094479;28;20498;-85
2023/04/15 06:19:45;;;;;;;0.40;0.40;;;6.20;99.90;;;;;;5094232;28;20514;-85
2023/04/15 06:22:11;;;;;;;0.50;0.50;;;6.40;99.90;;;;;;5094334;28;20795;-84
2023/04/15 06:24:38;;;;;;;1.13;0.70;;;6.60;99.90;;;;;;5094677;28;20869;-85
2023/04/15 06:27:05;;;;;;;1.30;0.43;;;6.80;99.90;;;;;;5094344;28;20546;-85
2023/04/15 06:29:31;;;;;;;2.07;0.90;;;7.10;99.90;;;;;;5094015;28;20460;-85
2023/04/15 06:31:58;;;;;;;0.80;0.80;;;7.40;99.90;;;;;;5093492;28;20477;-85
2023/04/15 06:34:25;;;;;;;1.00;0.83;;;7.70;99.90;;;;;;5094395;28;20428;-85
2023/04/15 06:36:53;;;;;;;0.77;0.67;;;8.20;99.90;;;;;;5093944;28;20459;-85
2023/04/15 06:39:20;;;;;;;1.43;0.63;;;8.40;99.90;;;;;;5093967;28;20452;-85
2023/04/15 06:41:46;;;;;;;1.50;1.00;;;8.70;99.90;;;;;;5094566;28;20891;-85
2023/04/15 06:44:13;;;;;;;0.63;0.60;;;9.00;99.90;;;;;;5094000;28;20444;-84
2023/04/15 06:46:40;;;;;;;0.80;0.80;;;9.30;99.90;;;;;;5093709;28;20445;-86
2023/04/15 06:49:08;;;;;;;4.33;0.80;;;9.60;99.90;;;;;;5093896;28;20417;-85
2023/04/15 06:51:35;;;;;;;2.87;1.10;;;9.90;99.90;;;;;;5093737;28;20499;-86
2023/04/15 06:54:05;;;;;;;4.27;1.63;;;10.10;99.90;;;;;;5093810;28;20540;-85
2023/04/15 06:56:31;;;;;;;3.27;0.60;;;10.40;99.90;;;;;;5093866;28;20483;-80
2023/04/15 06:58:58;;;;;;;2.03;0.77;;;10.70;99.90;;;;;;5093531;28;20455;-80
2023/04/15 07:01:25;;;;;;;1.27;0.90;;;11.00;99.90;;;;;;5093495;28;20468;-80
2023/04/15 07:03:52;;;;;;;1.17;0.83;;;11.30;99.90;;;;;;5093152;28;20967;-81
2023/04/15 07:06:18;;;;;;;3.23;1.60;;;11.50;99.90;;;;;;5093374;28;20472;-81
2023/04/15 07:08:45;;;;;;;1.87;1.13;;;11.70;99.90;;;;;;5093489;28;20501;-81
2023/04/15 07:11:13;;;;;;;0.60;0.60;;;12.00;99.90;;;;;;5093077;28;20456;-80
2023/04/15 07:13:40;;;;;;;2.83;1.37;;;12.30;99.90;;;;;;5093227;28;20488;-80
2023/04/15 07:16:07;;;;;;;2.40;1.00;;;12.60;99.90;;;;;;5093089;28;20440;-81
2023/04/15 07:18:34;;;;;;;3.17;1.60;;;12.90;99.90;;;;;;5093275;28;20457;-81
2023/04/15 07:21:01;;;;;;;1.40;1.00;;;13.10;99.90;;;;;;5093616;28;20526;-81
2023/04/15 07:23:28;;;;;;;0.83;0.77;;;13.40;99.90;;;;;;5092982;28;20951;-81
2023/04/15 07:25:56;;;;;;;0.90;0.90;;;13.60;99.90;;;;;;5093256;28;20457;-80
2023/04/15 07:28:24;;;;;;;1.90;1.00;;;14.10;99.90;;;;;;5092994;28;20539;-81
2023/04/15 07:30:51;;;;;;;1.13;0.80;;;14.90;99.90;;;;;;5092878;28;20475;-80
2023/04/15 07:33:17;;;;;;;1.47;1.17;;;15.90;99.90;;;;;;5093149;28;20545;-81
2023/04/15 07:35:44;;;;;;;1.30;1.20;;;17.10;99.80;;;;;;5093461;28;20852;-81
2023/04/15 07:38:12;;;;;;;0.70;0.70;;;18.20;96.30;;;;;;5093238;28;20860;-81
2023/04/15 07:40:39;;;;;;;0.93;0.93;;;18.90;92.80;;;;;;5093350;28;20472;-81
2023/04/15 07:43:05;;;;;;;0.90;0.90;;;19.40;88.10;;;;;;5096308;28;20459;-80
2023/04/15 07:45:34;;;;;;;5.00;1.30;;;19.50;83.20;;;;;;5096802;28;21012;-81
2023/04/15 07:48:01;;;;;;;0.90;0.77;;;19.40;80.50;;;;;;5096680;28;20472;-81
2023/04/15 07:50:28;;;;;;;1.73;0.90;;;18.90;79.80;;;;;;5096627;28;20522;-81
2023/04/15 07:52:55;;;;;;;1.47;0.80;;;18.30;81.40;;;;;;5096862;28;20471;-81
2023/04/15 07:55:22;;;;;;;1.13;1.03;;;17.80;83.80;;;;;;5096949;28;20447;-81
2023/04/15 07:57:49;;;;;;;1.80;1.27;;;17.40;84.30;;;;;;5096856;28;20460;-81
2023/04/15 08:00:17;;;;;;;4.73;1.10;;;17.20;86.20;;;;;;5096817;28;20903;-80
2023/04/15 08:02:45;;;;;;;1.20;0.90;;;17.30;86.70;;;;;;5096470;28;20444;-81
2023/04/15 08:05:13;;;;;;;0.87;0.80;;;18.10;84.70;;;;;;5096439;28;20955;-81
2023/04/15 08:07:40;;;;;;;2.10;0.90;;;18.90;82.10;;;;;;5096669;28;20452;-80
2023/04/15 08:10:08;;;;;;;0.80;0.80;;;20.10;78.50;;;;;;5096587;28;20463;-80
2023/04/15 08:12:35;;;;;;;1.00;0.70;;;21.30;73.50;;;;;;5096538;28;20483;-80
2023/04/15 08:15:01;;;;;;;1.27;0.77;;;22.60;68.10;;;;;;5096570;28;20206;-80
2023/04/15 08:17:28;;;;;;;0.70;0.68;;;23.30;64.90;;;;;;5096552;28;20230;-81
2023/04/15 08:19:56;;;;;;;1.98;0.90;;;24.00;62.80;;;;;;5096400;28;20225;-80
2023/04/15 08:22:23;;;;;;;1.25;1.10;;;24.30;60.00;;;;;;5096486;28;20183;-80
2023/04/15 08:24:50;;;;;;;0.77;0.70;;;24.40;57.60;;;;;;5096369;28;20202;-81
2023/04/15 08:27:17;;;;;;;1.20;0.63;;;24.60;56.40;;;;;;5096238;28;20232;-80
2023/04/15 08:29:45;;;;;;;0.65;0.65;;;24.60;53.60;;;;;;5096200;28;20225;-81
2023/04/15 08:32:11;;;;;;;1.83;0.60;;;24.10;52.80;;;;;;5096118;28;20290;-80
2023/04/15 08:34:38;;;;;;;0.60;0.60;;;23.90;51.40;;;;;;5096222;28;20210;-80
2023/04/15 08:37:07;;;;;;;1.67;0.80;;;23.40;50.40;;;;;;5095850;28;20665;-80
2023/04/15 08:39:33;;;;;;;0.70;0.70;;;22.50;52.70;;;;;;5096018;28;20205;-80
2023/04/15 08:42:02;;;;;;;0.50;0.50;;;21.90;54.10;;;;;;5096077;28;20205;-81
2023/04/15 08:44:33;;;;;;;0.73;0.73;;;21.40;51.90;;;;;;5096015;28;20335;-81
2023/04/15 08:47:02;;;;;;;6.47;0.80;;;20.60;53.20;;;;;;5095742;28;20240;-80
2023/04/15 08:49:29;;;;;;;2.20;0.70;;;19.80;54.20;;;;;;5095838;28;20225;-81
2023/04/15 08:51:59;;;;;;;0.50;0.50;;;19.20;55.80;;;;;;5095846;28;20202;-81
2023/04/15 08:54:28;;;;;;;1.63;0.70;;;18.70;56.30;;;;;;5095018;28;20476;-81
2023/04/15 08:56:54;;;;;;;0.80;0.60;;;18.30;57.00;;;;;;5095506;28;20433;-81
2023/04/15 08:59:21;;;;;;;0.97;0.70;;;18.10;58.10;;;;;;5095641;28;20459;-80
2023/04/15 09:01:49;;;;;;;2.37;0.93;;;17.80;59.70;;;;;;5095371;28;20456;-80
2023/04/15 09:04:17;;;;;;;1.10;0.80;;;17.60;60.00;;;;;;5095608;28;20437;-81
2023/04/15 09:06:44;;;;;;;0.80;0.70;;;17.60;60.20;;;;;;5095263;28;20440;-80
2023/04/15 09:09:13;;;;;;;0.60;0.60;;;17.60;61.10;;;;;;5095521;28;20445;-81
2023/04/15 09:11:41;;;;;;;2.10;0.83;;;17.70;60.40;;;;;;5095222;28;20472;-81
2023/04/15 09:14:07;;;;;;;0.60;0.60;;;17.80;60.40;;;;;;5095328;28;20546;-81
2023/04/15 09:16:59;;;;;;;1.43;0.60;;;17.80;58.90;;;;;;5095332;28;20494;-81
2023/04/15 09:19:26;;;;;;;0.90;0.50;;;17.70;59.40;;;;;;5095259;28;20432;-81
2023/04/15 09:21:55;;;;;;;2.93;0.90;;;17.60;57.70;;;;;;5095203;28;20456;-81
2023/04/15 09:24:22;;;;;;;0.50;0.50;;;17.70;57.80;;;;;;5095131;28;20585;-80
2023/04/15 09:26:53;;;;;;;1.37;0.70;;;17.90;58.30;;;;;;5095107;28;20440;-80
2023/04/15 09:29:19;;;;;;;0.50;0.50;;;18.50;56.60;;;;;;5095111;28;20475;-79
2023/04/15 09:31:46;;;;;;;0.57;0.47;;;19.30;55.80;;;;;;5095050;28;20444;-80
2023/04/15 09:34:13;;;;;;;0.60;0.50;;;19.70;55.00;;;;;;5095045;28;20559;-81
2023/04/15 09:36:53;;;;;;;0.67;0.57;;;19.90;54.80;;;;;;5094955;28;20437;-80
2023/04/15 09:39:20;;;;;;;2.17;0.83;;;19.80;50.10;;;;;;5095039;28;20429;-81
2023/04/15 09:41:46;;;;;;;0.57;0.57;;;19.40;52.00;;;;;;5094540;28;20449;-80
2023/04/15 09:44:24;;;;;;;0.80;0.40;;;19.00;53.10;;;;;;5094440;28;21001;-80
2023/04/15 09:46:50;;;;;;;2.43;0.50;;;18.70;51.70;;;;;;5094520;28;20452;-81
2023/04/15 09:49:18;;;;;;;2.17;0.80;;;18.30;53.50;;;;;;5094484;28;20429;-80
2023/04/15 09:51:45;;;;;;;1.27;0.50;;;17.90;53.40;;;;;;5094547;28;20464;-80
2023/04/15 09:54:11;;;;;;;0.73;0.70;;;17.60;55.80;;;;;;5094571;28;20479;-80
2023/04/15 09:56:41;;;;;;;2.40;0.60;;;17.40;57.20;;;;;;5094580;28;20451;-80
2023/04/15 09:59:07;;;;;;;2.00;0.60;;;17.30;55.60;;;;;;5094545;28;20495;-80
2023/04/15 10:01:36;;;;;;;0.63;0.60;;;17.30;56.20;;;;;;5094398;28;20465;-80
2023/04/15 10:04:05;;;;;;;0.90;0.57;;;17.40;58.80;;;;;;5094469;28;20444;-81
2023/04/15 10:06:33;;;;;;;0.80;0.70;;;17.60;56.80;;;;;;5093506;28;20863;-80
2023/04/15 10:09:01;;;;;;;2.63;0.80;;;17.80;54.60;;;;;;5094353;28;20445;-81
2023/04/15 10:11:29;;;;;;;0.60;0.60;;;18.10;53.90;;;;;;5094256;28;20472;-81
2023/04/15 10:13:57;;;;;;;1.03;0.50;;;18.40;52.70;;;;;;5093897;28;21073;-81
2023/04/15 10:16:27;;;;;;;0.70;0.70;;;18.60;53.90;;;;;;5094231;28;20448;-81
2023/04/15 10:18:57;;;;;;;1.30;0.50;;;19.00;54.60;;;;;;5094181;28;20432;-81
2023/04/15 10:21:24;;;;;;;2.20;0.53;;;19.40;53.70;;;;;;5094101;28;20473;-81
2023/04/15 10:23:51;;;;;;;0.70;0.70;;;19.50;51.60;;;;;;5094093;28;20441;-81
2023/04/15 10:26:18;;;;;;;0.60;0.60;;;19.40;52.30;;;;;;5094053;28;20455;-81
2023/04/15 10:28:46;;;;;;;0.77;0.60;;;19.20;51.50;;;;;;5093701;28;20861;-80
2023/04/15 10:31:13;;;;;;;0.50;0.50;;;19.60;50.70;;;;;;5093616;28;20468;-81
2023/04/15 10:33:41;;;;;;;0.70;0.70;;;19.90;48.00;;;;;;5093842;28;20503;-81
2023/04/15 10:36:10;;;;;;;1.10;0.70;;;19.90;49.90;;;;;;5093856;28;20452;-81
2023/04/15 10:38:39;;;;;;;0.80;0.73;;;19.80;50.40;;;;;;5093547;28;20940;-81
2023/04/15 10:41:14;;;;;;;3.13;0.80;;;19.50;50.80;;;;;;5093752;28;20476;-81
2023/04/15 10:43:45;;;;;;;2.60;0.57;;;19.20;51.60;;;;;;5093756;28;20493;-81
2023/04/15 10:46:12;;;;;;;1.87;0.60;;;18.90;53.30;;;;;;5093767;28;20437;-81
2023/04/15 10:48:39;;;;;;;1.00;0.60;;;18.60;53.30;;;;;;5093278;28;20571;-81
2023/04/15 10:51:05;;;;;;;1.27;0.80;;;18.30;51.60;;;;;;5093775;28;20480;-80
2023/04/15 10:53:36;;;;;;;2.40;0.70;;;17.90;52.60;;;;;;5093233;28;20476;-80
2023/04/15 10:56:04;;;;;;;1.57;0.60;;;17.90;52.90;;;;;;5093561;28;20440;-80
2023/04/15 10:58:42;;;;;;;1.00;0.63;;;17.90;53.50;;;;;;5093592;28;20471;-79
2023/04/15 11:01:08;;;;;;;0.60;0.60;;;17.70;54.30;;;;;;5093529;28;20528;-79
2023/04/15 11:03:38;;;;;;;5.23;0.90;;;17.50;55.00;;;;;;5093536;28;20451;-79
2023/04/15 11:06:06;;;;;;;4.43;0.60;;;17.30;55.90;;;;;;5093519;28;20476;-81
2023/04/15 11:08:57;;;;;;;0.57;0.40;;;17.10;56.40;;;;;;5093369;28;20529;-80
2023/04/15 11:11:39;;;;;;;1.13;0.90;;;16.90;55.90;;;;;;5092953;28;21052;-80
2023/04/15 11:14:07;;;;;;;0.80;0.60;;;16.70;57.20;;;;;;5092876;28;20476;-80
2023/04/15 11:16:43;;;;;;;0.60;0.60;;;16.60;57.90;;;;;;5093720;28;20452;-81
2023/04/15 11:19:10;;;;;;;0.60;0.50;;;16.60;57.90;;;;;;5097593;28;20497;-80
2023/04/15 11:21:37;;;;;;;1.30;1.20;;;16.60;57.10;;;;;;5097517;28;20866;-80
2023/04/15 11:24:05;;;;;;;1.13;0.60;;;16.60;58.50;;;;;;5097537;28;20444;-80
2023/04/15 11:26:31;;;;;;;2.60;0.70;;;16.60;59.30;;;;;;5097507;28;20467;-80
2023/04/15 11:29:00;;;;;;;1.40;0.70;;;16.70;58.50;;;;;;5097488;28;20451;-80
2023/04/15 11:31:29;;;;;;;0.80;0.60;;;16.70;57.50;;;;;;5097354;28;20987;-80
2023/04/15 11:33:57;;;;;;;0.73;0.73;;;16.80;57.60;;;;;;5097300;28;20486;-80
2023/04/15 11:36:27;;;;;;;2.57;0.93;;;16.80;58.20;;;;;;5097786;28;20489;-80
2023/04/15 11:38:53;;;;;;;0.60;0.60;;;16.90;56.20;;;;;;5098119;28;20476;-80
2023/04/15 11:41:22;;;;;;;1.40;0.80;;;17.10;56.20;;;;;;5097303;28;20464;-80
2023/04/15 11:43:49;;;;;;;2.73;0.87;;;17.20;56.40;;;;;;5097183;28;20502;-80
2023/04/15 11:46:16;;;;;;;0.73;0.53;;;17.20;56.70;;;;;;5097116;28;20460;-80
2023/04/15 11:48:44;;;;;;;0.70;0.60;;;17.30;58.00;;;;;;5096678;28;20515;-80
2023/04/15 11:51:11;;;;;;;0.60;0.60;;;17.10;56.80;;;;;;5096984;28;20464;-80
2023/04/15 11:53:42;;;;;;;0.80;0.70;;;16.90;58.00;;;;;;5096570;28;20869;-80
2023/04/15 11:56:10;;;;;;;0.80;0.70;;;16.90;59.00;;;;;;5096653;28;20498;-80
2023/04/15 11:58:39;;;;;;;1.57;0.80;;;16.80;60.80;;;;;;5096571;28;20807;-80
2023/04/15 12:01:06;;;;;;;3.90;0.80;;;16.90;59.70;;;;;;5096488;28;21018;-80
2023/04/15 12:03:37;;;;;;;1.47;0.90;;;16.90;60.70;;;;;;5096488;28;20971;-80
2023/04/15 12:06:11;;;;;;;1.43;0.80;;;16.90;60.50;;;;;;5096830;28;20486;-80
2023/04/15 12:08:58;;;;;;;0.47;0.47;;;17.00;60.40;;;;;;5096760;28;20437;-80
2023/04/15 12:11:30;;;;;;;1.30;1.00;;;17.00;59.80;;;;;;5096654;28;20521;-80
2023/04/15 12:14:02;;;;;;;1.17;1.03;;;16.90;61.40;;;;;;5096530;28;20525;-80
2023/04/15 12:16:29;;;;;;;6.00;0.77;;;16.90;61.30;;;;;;5096595;28;20425;-80
2023/04/15 12:18:57;;;;;;;5.57;0.97;;;16.90;61.00;;;;;;5096518;28;20444;-80
2023/04/15 12:21:25;;;;;;;0.70;0.70;;;16.80;61.70;;;;;;5096406;28;20464;-81
2023/04/15 12:23:54;;;;;;;0.70;0.70;;;16.80;63.60;;;;;;5096427;28;20445;-81
2023/04/15 12:26:27;;;;;;;1.50;0.83;;;16.80;62.00;;;;;;5096068;28;20452;-81
2023/04/15 12:28:54;;;;;;;1.67;1.00;;;16.70;63.00;;;;;;5095206;28;20468;-80
2023/04/15 12:31:23;;;;;;;1.33;0.90;;;16.60;61.20;;;;;;5096331;28;20476;-81
2023/04/15 12:33:49;;;;;;;4.83;1.00;;;16.70;62.70;;;;;;5096084;28;20488;-81
2023/04/15 12:36:16;;;;;;;1.23;1.10;;;16.70;63.90;;;;;;5096126;28;20448;-81
2023/04/15 12:38:43;;;;;;;2.23;1.47;;;16.80;61.00;;;;;;5096063;28;20459;-81
2023/04/15 12:41:10;;;;;;;1.20;1.10;;;17.00;60.70;;;;;;5095773;28;20456;-81
2023/04/15 12:43:36;;;;;;;2.03;0.90;;;16.90;61.20;;;;;;5096028;28;20461;-81
2023/04/15 12:46:03;;;;;;;9.83;2.00;;;16.90;63.50;;;;;;5096031;28;20449;-81
2023/04/15 12:48:32;;;;;;;2.00;1.10;;;16.80;63.10;;;;;;5095412;28;20515;-80
2023/04/15 12:50:58;;;;;;;2.90;1.53;;;16.70;63.20;;;;;;5095714;28;20472;-81
2023/04/15 12:53:25;;;;;;;1.63;1.00;;;16.40;63.10;;;;;;5095815;28;20498;-81
2023/04/15 12:55:52;;;;;;;0.97;0.87;;;16.20;62.30;;;;;;5095719;28;20495;-80